sensor_id;sensor_type;location;lat;lon;timestamp;pressure;altitude;pressure_sealevel;temperature;humidity
31717;BME280;18301;51.076;17.046;2022-09-09T00:02:31;99789.03;;;17.65;98.62
31717;BME280;18301;51.076;17.046;2022-09-09T00:07:46;99791.97;;;17.47;99.25
31717;BME280;18301;51.076;17.046;2022-09-09T00:23:24;99792.66;;;17.33;99.87
31717;BME280;18301;51.076;17.046;2022-09-09T00:28:27;99793.00;;;17.21;99.93
31717;BME280;18301;51.076;17.046;2022-09-09T00:33:31;99791.28;;;17.20;100.00
31717;BME280;18301;51.076;17.046;2022-09-09T00:38:36;99780.22;;;17.14;100.00
31717;BME280;18301;51.076;17.046;2022-09-09T00:43:40;99785.16;;;17.10;100.00
31717;BME280;18301;51.076;17.046;2022-09-09T00:49:05;99785.53;;;17.15;99.70
31717;BME280;18301;51.076;17.046;2022-09-09T00:54:54;99790.28;;;17.13;99.11
31717;BME280;18301;51.076;17.046;2022-09-09T01:10:45;99792.66;;;17.00;98.49
31717;BME280;18301;51.076;17.046;2022-09-09T01:15:50;99792.81;;;16.98;98.24
31717;BME280;18301;51.076;17.046;2022-09-09T01:26:22;99801.88;;;16.91;97.27
31717;BME280;18301;51.076;17.046;2022-09-09T01:31:30;99806.09;;;16.85;97.46
31717;BME280;18301;51.076;17.046;2022-09-09T01:41:44;99804.75;;;16.81;96.86
31717;BME280;18301;51.076;17.046;2022-09-09T01:46:46;99808.66;;;16.78;96.58
31717;BME280;18301;51.076;17.046;2022-09-09T01:51:53;99810.28;;;16.71;96.58
31717;BME280;18301;51.076;17.046;2022-09-09T02:08:05;99820.13;;;16.56;96.44
31717;BME280;18301;51.076;17.046;2022-09-09T02:13:13;99831.53;;;16.51;96.39
31717;BME280;18301;51.076;17.046;2022-09-09T02:18:21;99830.31;;;16.46;96.57
31717;BME280;18301;51.076;17.046;2022-09-09T02:23:26;99827.75;;;16.36;96.48
31717;BME280;18301;51.076;17.046;2022-09-09T02:28:31;99835.41;;;16.32;96.89
31717;BME280;18301;51.076;17.046;2022-09-09T02:33:38;99834.69;;;16.30;96.82
31717;BME280;18301;51.076;17.046;2022-09-09T02:38:46;99840.66;;;16.26;96.53
31717;BME280;18301;51.076;17.046;2022-09-09T02:43:51;99840.09;;;16.22;95.94
31717;BME280;18301;51.076;17.046;2022-09-09T02:49:08;99846.88;;;16.18;96.10
31717;BME280;18301;51.076;17.046;2022-09-09T02:54:19;99844.81;;;16.12;95.40
31717;BME280;18301;51.076;17.046;2022-09-09T02:59:24;99856.03;;;16.09;95.34
31717;BME280;18301;51.076;17.046;2022-09-09T03:04:26;99850.53;;;16.01;95.93
31717;BME280;18301;51.076;17.046;2022-09-09T03:09:28;99853.25;;;16.01;96.32
31717;BME280;18301;51.076;17.046;2022-09-09T03:14:29;99860.44;;;16.02;96.32
31717;BME280;18301;51.076;17.046;2022-09-09T03:19:31;99862.13;;;16.03;96.26
31717;BME280;18301;51.076;17.046;2022-09-09T03:24:33;99865.03;;;16.01;95.98
31717;BME280;18301;51.076;17.046;2022-09-09T03:29:34;99877.19;;;15.89;96.05
31717;BME280;18301;51.076;17.046;2022-09-09T03:34:36;99868.47;;;15.85;96.89
31717;BME280;18301;51.076;17.046;2022-09-09T03:39:40;99867.16;;;15.90;96.97
31717;BME280;18301;51.076;17.046;2022-09-09T03:44:42;99868.00;;;15.90;96.52
31717;BME280;18301;51.076;17.046;2022-09-09T03:49:43;99870.03;;;15.88;96.01
31717;BME280;18301;51.076;17.046;2022-09-09T03:54:45;99867.78;;;15.83;95.64
31717;BME280;18301;51.076;17.046;2022-09-09T03:59:46;99875.91;;;15.75;95.97
31717;BME280;18301;51.076;17.046;2022-09-09T04:04:48;99880.28;;;15.68;96.49
31717;BME280;18301;51.076;17.046;2022-09-09T04:09:49;99876.78;;;15.58;97.19
31717;BME280;18301;51.076;17.046;2022-09-09T04:14:51;99888.66;;;15.57;97.82
31717;BME280;18301;51.076;17.046;2022-09-09T04:19:53;99891.22;;;15.58;98.09
31717;BME280;18301;51.076;17.046;2022-09-09T04:24:54;99888.00;;;15.63;97.43
31717;BME280;18301;51.076;17.046;2022-09-09T04:29:56;99888.31;;;15.60;97.62
31717;BME280;18301;51.076;17.046;2022-09-09T04:34:58;99894.41;;;15.54;98.08
31717;BME280;18301;51.076;17.046;2022-09-09T04:40:00;99888.31;;;15.60;98.19
31717;BME280;18301;51.076;17.046;2022-09-09T04:45:03;99894.91;;;15.67;98.34
31717;BME280;18301;51.076;17.046;2022-09-09T04:50:06;99895.25;;;15.72;98.19
31717;BME280;18301;51.076;17.046;2022-09-09T04:55:08;99895.31;;;15.80;98.12
31717;BME280;18301;51.076;17.046;2022-09-09T05:00:10;99897.75;;;15.92;98.05
31717;BME280;18301;51.076;17.046;2022-09-09T05:05:13;99896.13;;;15.99;97.51
31717;BME280;18301;51.076;17.046;2022-09-09T05:10:14;99904.63;;;16.04;97.47
31717;BME280;18301;51.076;17.046;2022-09-09T05:15:17;99913.69;;;16.04;98.20
31717;BME280;18301;51.076;17.046;2022-09-09T05:20:19;99913.25;;;16.17;99.33
31717;BME280;18301;51.076;17.046;2022-09-09T05:25:21;99910.78;;;16.32;98.50
31717;BME280;18301;51.076;17.046;2022-09-09T05:30:23;99926.34;;;16.48;97.52
31717;BME280;18301;51.076;17.046;2022-09-09T05:35:26;99922.13;;;16.62;96.94
31717;BME280;18301;51.076;17.046;2022-09-09T05:40:28;99922.25;;;16.78;96.84
31717;BME280;18301;51.076;17.046;2022-09-09T05:45:29;99917.00;;;16.85;97.53
31717;BME280;18301;51.076;17.046;2022-09-09T05:50:31;99919.38;;;16.96;97.04
31717;BME280;18301;51.076;17.046;2022-09-09T05:55:33;99913.44;;;17.09;96.43
31717;BME280;18301;51.076;17.046;2022-09-09T06:00:34;99914.16;;;17.19;96.17
31717;BME280;18301;51.076;17.046;2022-09-09T06:05:36;99927.97;;;17.25;95.73
31717;BME280;18301;51.076;17.046;2022-09-09T06:10:37;99915.69;;;17.30;95.39
31717;BME280;18301;51.076;17.046;2022-09-09T06:15:39;99910.59;;;17.51;95.14
31717;BME280;18301;51.076;17.046;2022-09-09T06:20:41;99910.59;;;17.76;94.24
31717;BME280;18301;51.076;17.046;2022-09-09T06:25:43;99912.34;;;17.93;93.18
31717;BME280;18301;51.076;17.046;2022-09-09T06:30:44;99910.09;;;18.05;93.41
31717;BME280;18301;51.076;17.046;2022-09-09T06:35:51;99914.31;;;18.24;92.74
31717;BME280;18301;51.076;17.046;2022-09-09T06:40:56;99930.94;;;18.53;92.47
31717;BME280;18301;51.076;17.046;2022-09-09T06:46:20;99935.34;;;18.71;91.12
31717;BME280;18301;51.076;17.046;2022-09-09T06:51:24;99929.78;;;18.95;90.10
31717;BME280;18301;51.076;17.046;2022-09-09T06:56:36;99926.06;;;19.19;88.36
31717;BME280;18301;51.076;17.046;2022-09-09T07:01:40;99926.06;;;19.42;87.52
31717;BME280;18301;51.076;17.046;2022-09-09T07:06:44;99931.72;;;19.64;84.36
31717;BME280;18301;51.076;17.046;2022-09-09T07:11:49;99935.00;;;19.82;86.04
31717;BME280;18301;51.076;17.046;2022-09-09T07:16:52;99932.72;;;20.09;83.66
31717;BME280;18301;51.076;17.046;2022-09-09T07:21:59;99941.91;;;20.31;83.64
31717;BME280;18301;51.076;17.046;2022-09-09T07:27:01;99934.66;;;20.53;81.79
31717;BME280;18301;51.076;17.046;2022-09-09T07:32:04;99937.31;;;20.61;79.49
31717;BME280;18301;51.076;17.046;2022-09-09T07:37:06;99932.84;;;20.75;80.99
31717;BME280;18301;51.076;17.046;2022-09-09T07:42:08;99948.44;;;21.04;80.20
31717;BME280;18301;51.076;17.046;2022-09-09T07:47:12;99948.97;;;21.14;78.76
31717;BME280;18301;51.076;17.046;2022-09-09T07:52:14;99958.56;;;21.40;76.06
31717;BME280;18301;51.076;17.046;2022-09-09T07:57:19;99959.13;;;21.71;75.33
31717;BME280;18301;51.076;17.046;2022-09-09T08:02:22;99955.41;;;22.07;74.14
31717;BME280;18301;51.076;17.046;2022-09-09T08:07:24;99970.19;;;22.27;69.19
31717;BME280;18301;51.076;17.046;2022-09-09T08:12:26;99962.03;;;22.41;71.93
31717;BME280;18301;51.076;17.046;2022-09-09T08:17:27;99952.84;;;22.55;70.79
31717;BME280;18301;51.076;17.046;2022-09-09T08:22:29;99958.59;;;22.60;68.21
31717;BME280;18301;51.076;17.046;2022-09-09T08:27:30;99954.56;;;22.63;68.96
31717;BME280;18301;51.076;17.046;2022-09-09T08:32:33;99942.25;;;22.52;68.95
31717;BME280;18301;51.076;17.046;2022-09-09T08:37:36;99944.25;;;22.37;69.08
31717;BME280;18301;51.076;17.046;2022-09-09T08:42:41;99941.34;;;22.45;69.80
31717;BME280;18301;51.076;17.046;2022-09-09T08:48:15;99955.91;;;22.73;69.79
31717;BME280;18301;51.076;17.046;2022-09-09T08:53:23;99953.69;;;22.56;68.77
31717;BME280;18301;51.076;17.046;2022-09-09T08:58:30;99960.13;;;22.69;67.88
31717;BME280;18301;51.076;17.046;2022-09-09T09:09:27;99971.34;;;23.09;66.67
31717;BME280;18301;51.076;17.046;2022-09-09T09:14:34;99965.97;;;23.49;64.25
31717;BME280;18301;51.076;17.046;2022-09-09T09:19:39;99968.91;;;23.41;63.39
31717;BME280;18301;51.076;17.046;2022-09-09T09:29:54;99953.13;;;23.83;62.29
31717;BME280;18301;51.076;17.046;2022-09-09T09:35:18;99969.44;;;23.78;59.88
31717;BME280;18301;51.076;17.046;2022-09-09T09:40:22;99961.75;;;23.66;61.31
31717;BME280;18301;51.076;17.046;2022-09-09T09:45:32;99965.56;;;23.52;61.66
31717;BME280;18301;51.076;17.046;2022-09-09T09:50:49;99950.31;;;23.56;61.78
31717;BME280;18301;51.076;17.046;2022-09-09T09:56:00;99964.94;;;23.63;61.33
31717;BME280;18301;51.076;17.046;2022-09-09T10:01:02;99970.69;;;23.69;59.21
31717;BME280;18301;51.076;17.046;2022-09-09T10:06:04;99961.75;;;23.66;60.72
31717;BME280;18301;51.076;17.046;2022-09-09T10:11:17;99965.56;;;23.59;59.20
31717;BME280;18301;51.076;17.046;2022-09-09T10:43:12;99949.75;;;24.54;56.32
31717;BME280;18301;51.076;17.046;2022-09-09T10:48:44;99949.47;;;24.69;56.66
31717;BME280;18301;51.076;17.046;2022-09-09T10:54:18;99949.91;;;24.66;56.44
31717;BME280;18301;51.076;17.046;2022-09-09T10:59:20;99942.47;;;24.60;56.33
31717;BME280;18301;51.076;17.046;2022-09-09T11:04:30;99946.31;;;24.58;56.05
31717;BME280;18301;51.076;17.046;2022-09-09T11:09:41;99931.66;;;24.65;55.71
31717;BME280;18301;51.076;17.046;2022-09-09T11:14:51;99948.22;;;24.65;55.03
31717;BME280;18301;51.076;17.046;2022-09-09T11:19:57;99954.13;;;24.75;57.28
31717;BME280;18301;51.076;17.046;2022-09-09T11:25:04;99956.28;;;24.60;55.64
31717;BME280;18301;51.076;17.046;2022-09-09T11:30:22;99950.75;;;24.73;53.38
31717;BME280;18301;51.076;17.046;2022-09-09T11:41:08;99952.22;;;24.69;52.20
31717;BME280;18301;51.076;17.046;2022-09-09T11:46:13;99952.22;;;24.69;51.98
31717;BME280;18301;51.076;17.046;2022-09-09T11:56:34;99948.66;;;24.62;51.68
31717;BME280;18301;51.076;17.046;2022-09-09T12:01:43;99950.16;;;24.57;52.89
31717;BME280;18301;51.076;17.046;2022-09-09T12:06:50;99941.44;;;24.34;55.38
31717;BME280;18301;51.076;17.046;2022-09-09T12:11:53;99944.44;;;24.12;57.13
31717;BME280;18301;51.076;17.046;2022-09-09T12:17:17;99940.41;;;24.28;55.58
31717;BME280;18301;51.076;17.046;2022-09-09T12:33:11;99928.69;;;24.60;54.75
31717;BME280;18301;51.076;17.046;2022-09-09T12:38:20;99936.38;;;24.44;56.17
31717;BME280;18301;51.076;17.046;2022-09-09T12:43:25;99927.66;;;24.47;53.33
31717;BME280;18301;51.076;17.046;2022-09-09T12:48:37;99938.00;;;24.72;53.81
31717;BME280;18301;51.076;17.046;2022-09-09T12:53:40;99950.06;;;24.84;52.33
31717;BME280;18301;51.076;17.046;2022-09-09T12:58:45;99935.50;;;24.57;53.27
31717;BME280;18301;51.076;17.046;2022-09-09T13:03:48;99929.78;;;24.39;51.07
31717;BME280;18301;51.076;17.046;2022-09-09T13:08:52;99931.69;;;24.38;53.28
31717;BME280;18301;51.076;17.046;2022-09-09T13:13:55;99924.03;;;24.40;54.16
31717;BME280;18301;51.076;17.046;2022-09-09T13:19:08;99912.56;;;24.56;54.12
31717;BME280;18301;51.076;17.046;2022-09-09T13:24:27;99905.31;;;24.75;52.47
31717;BME280;18301;51.076;17.046;2022-09-09T13:29:32;99894.69;;;24.79;52.14
31717;BME280;18301;51.076;17.046;2022-09-09T13:34:35;99902.75;;;24.74;52.96
31717;BME280;18301;51.076;17.046;2022-09-09T13:39:37;99903.44;;;24.63;51.68
31717;BME280;18301;51.076;17.046;2022-09-09T13:44:40;99896.72;;;24.45;53.58
31717;BME280;18301;51.076;17.046;2022-09-09T13:49:43;99891.66;;;24.87;53.32
31717;BME280;18301;51.076;17.046;2022-09-09T13:54:52;99881.00;;;24.97;52.19
31717;BME280;18301;51.076;17.046;2022-09-09T13:59:54;99874.78;;;25.09;51.91
31717;BME280;18301;51.076;17.046;2022-09-09T14:05:06;99873.78;;;24.96;51.73
31717;BME280;18301;51.076;17.046;2022-09-09T14:10:09;99882.41;;;24.68;53.13
31717;BME280;18301;51.076;17.046;2022-09-09T14:15:11;99889.41;;;24.71;53.12
31717;BME280;18301;51.076;17.046;2022-09-09T14:20:13;99887.94;;;24.62;52.63
31717;BME280;18301;51.076;17.046;2022-09-09T14:25:16;99895.59;;;24.60;53.36
31717;BME280;18301;51.076;17.046;2022-09-09T14:30:18;99893.94;;;24.45;51.86
31717;BME280;18301;51.076;17.046;2022-09-09T14:35:20;99890.13;;;24.33;52.24
31717;BME280;18301;51.076;17.046;2022-09-09T14:40:22;99883.97;;;24.31;53.28
31717;BME280;18301;51.076;17.046;2022-09-09T14:45:23;99876.94;;;24.35;53.30
31717;BME280;18301;51.076;17.046;2022-09-09T14:50:26;99883.75;;;24.39;54.19
31717;BME280;18301;51.076;17.046;2022-09-09T14:55:27;99875.69;;;24.31;53.08
31717;BME280;18301;51.076;17.046;2022-09-09T15:00:30;99866.38;;;24.25;54.12
31717;BME280;18301;51.076;17.046;2022-09-09T15:05:32;99857.28;;;24.18;54.50
31717;BME280;18301;51.076;17.046;2022-09-09T15:10:33;99859.19;;;24.18;54.78
31717;BME280;18301;51.076;17.046;2022-09-09T15:15:35;99847.75;;;24.07;55.37
31717;BME280;18301;51.076;17.046;2022-09-09T15:20:36;99856.66;;;24.03;55.34
31717;BME280;18301;51.076;17.046;2022-09-09T15:25:51;99859.88;;;23.86;56.04
31717;BME280;18301;51.076;17.046;2022-09-09T15:30:54;99855.41;;;23.85;56.15
31717;BME280;18301;51.076;17.046;2022-09-09T15:35:56;99850.31;;;23.82;55.89
31717;BME280;18301;51.076;17.046;2022-09-09T15:40:57;99859.84;;;23.80;56.85
31717;BME280;18301;51.076;17.046;2022-09-09T15:46:22;99871.13;;;23.72;57.19
31717;BME280;18301;51.076;17.046;2022-09-09T15:51:28;99870.88;;;23.53;57.72
31717;BME280;18301;51.076;17.046;2022-09-09T15:56:51;99863.44;;;23.34;58.21
31717;BME280;18301;51.076;17.046;2022-09-09T16:01:53;99862.97;;;23.24;58.49
31717;BME280;18301;51.076;17.046;2022-09-09T16:06:59;99860.84;;;23.12;58.97
31717;BME280;18301;51.076;17.046;2022-09-09T16:12:02;99864.63;;;23.05;59.17
31717;BME280;18301;51.076;17.046;2022-09-09T16:17:07;99864.63;;;22.98;59.18
31717;BME280;18301;51.076;17.046;2022-09-09T16:22:09;99871.31;;;22.89;60.61
31717;BME280;18301;51.076;17.046;2022-09-09T16:27:11;99874.25;;;22.81;60.16
31717;BME280;18301;51.076;17.046;2022-09-09T16:32:12;99869.56;;;22.74;60.73
31717;BME280;18301;51.076;17.046;2022-09-09T16:37:14;99868.94;;;22.72;60.73
31717;BME280;18301;51.076;17.046;2022-09-09T16:42:16;99875.44;;;22.58;61.47
31717;BME280;18301;51.076;17.046;2022-09-09T16:47:18;99880.47;;;22.48;62.11
31717;BME280;18301;51.076;17.046;2022-09-09T16:52:19;99879.38;;;22.42;62.50
31717;BME280;18301;51.076;17.046;2022-09-09T16:57:21;99878.69;;;22.34;63.67
31717;BME280;18301;51.076;17.046;2022-09-09T17:02:23;99883.06;;;22.21;62.97
31717;BME280;18301;51.076;17.046;2022-09-09T17:07:25;99877.03;;;22.11;65.29
31717;BME280;18301;51.076;17.046;2022-09-09T17:12:27;99882.28;;;22.06;63.83
31717;BME280;18301;51.076;17.046;2022-09-09T17:17:29;99888.97;;;21.97;63.95
31717;BME280;18301;51.076;17.046;2022-09-09T17:22:32;99902.41;;;21.85;65.32
31717;BME280;18301;51.076;17.046;2022-09-09T17:27:34;99899.72;;;21.70;65.58
31717;BME280;18301;51.076;17.046;2022-09-09T17:32:35;99892.28;;;21.64;66.02
31717;BME280;18301;51.076;17.046;2022-09-09T17:37:37;99885.22;;;21.55;67.00
31717;BME280;18301;51.076;17.046;2022-09-09T17:42:39;99883.75;;;21.52;66.90
31717;BME280;18301;51.076;17.046;2022-09-09T17:47:41;99883.03;;;21.44;67.20
31717;BME280;18301;51.076;17.046;2022-09-09T17:52:44;99885.78;;;21.44;67.29
31717;BME280;18301;51.076;17.046;2022-09-09T17:57:45;99886.25;;;21.32;67.87
31717;BME280;18301;51.076;17.046;2022-09-09T18:02:47;99894.22;;;21.27;68.10
31717;BME280;18301;51.076;17.046;2022-09-09T18:07:49;99905.28;;;21.12;69.30
31717;BME280;18301;51.076;17.046;2022-09-09T18:12:51;99899.50;;;21.07;69.79
31717;BME280;18301;51.076;17.046;2022-09-09T18:17:52;99899.81;;;20.98;70.40
31717;BME280;18301;51.076;17.046;2022-09-09T18:22:54;99903.91;;;20.87;71.23
31717;BME280;18301;51.076;17.046;2022-09-09T18:27:55;99907.63;;;20.79;73.40
31717;BME280;18301;51.076;17.046;2022-09-09T18:32:58;99895.72;;;20.72;73.33
31717;BME280;18301;51.076;17.046;2022-09-09T18:38:00;99901.59;;;20.69;72.34
31717;BME280;18301;51.076;17.046;2022-09-09T18:43:02;99898.94;;;20.76;72.43
31717;BME280;18301;51.076;17.046;2022-09-09T18:48:03;99899.19;;;20.81;72.38
31717;BME280;18301;51.076;17.046;2022-09-09T18:53:06;99905.94;;;20.78;72.47
31717;BME280;18301;51.076;17.046;2022-09-09T18:58:07;99904.22;;;20.77;72.76
31717;BME280;18301;51.076;17.046;2022-09-09T19:03:09;99903.28;;;20.70;73.08
31717;BME280;18301;51.076;17.046;2022-09-09T19:08:10;99913.31;;;20.63;74.05
31717;BME280;18301;51.076;17.046;2022-09-09T19:13:12;99902.81;;;20.66;73.94
31717;BME280;18301;51.076;17.046;2022-09-09T19:18:14;99908.47;;;20.65;74.28
31717;BME280;18301;51.076;17.046;2022-09-09T19:23:16;99908.38;;;20.58;74.53
31717;BME280;18301;51.076;17.046;2022-09-09T19:28:17;99898.66;;;20.56;74.95
31717;BME280;18301;51.076;17.046;2022-09-09T19:33:19;99897.63;;;20.57;75.18
31717;BME280;18301;51.076;17.046;2022-09-09T19:38:20;99901.78;;;20.53;75.88
31717;BME280;18301;51.076;17.046;2022-09-09T19:43:23;99899.50;;;20.41;75.73
31717;BME280;18301;51.076;17.046;2022-09-09T19:48:25;99910.16;;;20.36;76.02
31717;BME280;18301;51.076;17.046;2022-09-09T19:53:36;99902.22;;;20.27;76.33
31717;BME280;18301;51.076;17.046;2022-09-09T19:58:39;99914.41;;;20.24;76.79
31717;BME280;18301;51.076;17.046;2022-09-09T20:03:42;99917.81;;;20.26;76.90
31717;BME280;18301;51.076;17.046;2022-09-09T20:08:45;99919.31;;;20.14;77.29
31717;BME280;18301;51.076;17.046;2022-09-09T20:13:48;99924.69;;;20.07;77.79
31717;BME280;18301;51.076;17.046;2022-09-09T20:18:54;99927.63;;;20.06;77.53
31717;BME280;18301;51.076;17.046;2022-09-09T20:23:59;99926.13;;;20.18;77.81
31717;BME280;18301;51.076;17.046;2022-09-09T20:29:03;99935.38;;;20.17;78.24
31717;BME280;18301;51.076;17.046;2022-09-09T20:34:16;99939.81;;;20.18;77.86
31717;BME280;18301;51.076;17.046;2022-09-09T20:39:19;99940.88;;;20.17;78.00
31717;BME280;18301;51.076;17.046;2022-09-09T20:44:23;99940.88;;;20.17;78.23
31717;BME280;18301;51.076;17.046;2022-09-09T20:49:25;99951.31;;;20.13;79.19
31717;BME280;18301;51.076;17.046;2022-09-09T20:54:27;99956.41;;;20.02;79.16
31717;BME280;18301;51.076;17.046;2022-09-09T20:59:32;99961.91;;;20.02;79.25
31717;BME280;18301;51.076;17.046;2022-09-09T21:04:35;99962.91;;;20.00;80.28
31717;BME280;18301;51.076;17.046;2022-09-09T21:09:38;99964.13;;;19.83;82.50
31717;BME280;18301;51.076;17.046;2022-09-09T21:14:41;99971.69;;;19.73;81.79
31717;BME280;18301;51.076;17.046;2022-09-09T21:19:42;99982.88;;;19.63;81.70
31717;BME280;18301;51.076;17.046;2022-09-09T21:24:45;99989.91;;;19.58;82.03
31717;BME280;18301;51.076;17.046;2022-09-09T21:29:47;100014.25;;;19.52;83.05
31717;BME280;18301;51.076;17.046;2022-09-09T21:34:50;100028.47;;;19.48;83.01
31717;BME280;18301;51.076;17.046;2022-09-09T21:39:51;100044.41;;;19.44;83.39
31717;BME280;18301;51.076;17.046;2022-09-09T21:44:53;100046.72;;;18.77;92.15
31717;BME280;18301;51.076;17.046;2022-09-09T21:49:56;100050.50;;;18.76;91.33
31717;BME280;18301;51.076;17.046;2022-09-09T21:54:57;100053.59;;;18.48;92.94
31717;BME280;18301;51.076;17.046;2022-09-09T21:59:59;100051.56;;;18.17;99.30
31717;BME280;18301;51.076;17.046;2022-09-09T22:05:00;100051.91;;;18.14;95.72
31717;BME280;18301;51.076;17.046;2022-09-09T22:10:02;100057.69;;;18.28;97.95
31717;BME280;18301;51.076;17.046;2022-09-09T22:15:05;100058.03;;;18.25;96.15
31717;BME280;18301;51.076;17.046;2022-09-09T22:20:08;100062.50;;;18.17;95.50
31717;BME280;18301;51.076;17.046;2022-09-09T22:25:10;100067.94;;;18.09;97.35
31717;BME280;18301;51.076;17.046;2022-09-09T22:30:12;100069.34;;;18.13;96.30
31717;BME280;18301;51.076;17.046;2022-09-09T22:35:13;100069.66;;;18.18;96.89
31717;BME280;18301;51.076;17.046;2022-09-09T22:40:15;100056.34;;;18.24;95.81
31717;BME280;18301;51.076;17.046;2022-09-09T22:45:17;100047.47;;;18.22;95.34
31717;BME280;18301;51.076;17.046;2022-09-09T22:50:18;100040.31;;;18.21;94.91
31717;BME280;18301;51.076;17.046;2022-09-09T22:55:20;100036.53;;;18.22;95.04
31717;BME280;18301;51.076;17.046;2022-09-09T23:00:23;100016.91;;;18.18;95.84
31717;BME280;18301;51.076;17.046;2022-09-09T23:05:25;100014.19;;;18.02;96.06
31717;BME280;18301;51.076;17.046;2022-09-09T23:10:27;100005.50;;;17.90;98.29
31717;BME280;18301;51.076;17.046;2022-09-09T23:15:29;99997.78;;;17.85;98.54
31717;BME280;18301;51.076;17.046;2022-09-09T23:20:31;99982.47;;;17.92;97.76
31717;BME280;18301;51.076;17.046;2022-09-09T23:25:34;99981.63;;;17.92;97.20
31717;BME280;18301;51.076;17.046;2022-09-09T23:30:40;99977.84;;;18.01;96.19
31717;BME280;18301;51.076;17.046;2022-09-09T23:35:42;99976.13;;;18.08;96.02
31717;BME280;18301;51.076;17.046;2022-09-09T23:40:44;99975.44;;;18.06;95.86
31717;BME280;18301;51.076;17.046;2022-09-09T23:45:47;99985.72;;;18.04;95.94
31717;BME280;18301;51.076;17.046;2022-09-09T23:50:50;100002.94;;;18.05;95.94
31717;BME280;18301;51.076;17.046;2022-09-09T23:55:52;100008.56;;;18.03;96.20
